Time;durP1;ratioP1;P1;durP2;ratioP2;P2;SDS_P1;SDS_P2;PMS_P1;PMS_P2;Temp;Humidity;BMP_temperature;BMP_pressure;BME280_temperature;BME280_humidity;BME280_pressure;Samples;Min_cycle;Max_cycle;Signal;HPM_P1;HPM_P2
2023/07/09 00:00:13;;;;;;;9.70;4.13;;;22.00;99.90;;;;;;5107362;28;20073;-65
2023/07/09 00:02:39;;;;;;;7.10;4.38;;;22.10;99.90;;;;;;5114399;28;20027;-65
2023/07/09 00:05:09;;;;;;;11.52;4.63;;;22.00;99.90;;;;;;5117234;28;20027;-65
2023/07/09 00:07:35;;;;;;;7.72;4.28;;;22.00;99.90;;;;;;5116878;28;20031;-66
2023/07/09 00:10:01;;;;;;;6.53;4.32;;;22.00;99.90;;;;;;5110193;28;20331;-65
2023/07/09 00:12:27;;;;;;;7.65;4.65;;;22.00;99.90;;;;;;5104759;28;20039;-65
2023/07/09 00:14:54;;;;;;;6.90;4.38;;;22.00;99.90;;;;;;5113838;27;20047;-65
2023/07/09 00:17:28;;;;;;;9.63;4.15;;;21.90;99.90;;;;;;5112849;28;20024;-65
2023/07/09 00:19:54;;;;;;;8.75;4.93;;;21.90;99.90;;;;;;5116259;28;20306;-65
2023/07/09 00:22:20;;;;;;;8.18;4.60;;;21.90;99.90;;;;;;5116220;28;20020;-65
2023/07/09 00:24:51;;;;;;;9.55;4.93;;;22.00;99.90;;;;;;5112912;28;20072;-65
2023/07/09 00:27:20;;;;;;;8.27;4.90;;;22.00;99.90;;;;;;5115359;28;20337;-65
2023/07/09 00:29:45;;;;;;;8.23;5.18;;;22.00;99.90;;;;;;5114992;28;20132;-64
2023/07/09 00:32:24;;;;;;;9.67;4.77;;;21.90;99.90;;;;;;5115919;28;20054;-72
2023/07/09 00:34:51;;;;;;;8.75;4.63;;;21.90;99.90;;;;;;5104557;28;20302;-92
2023/07/09 00:37:19;;;;;;;8.52;4.55;;;21.80;99.90;;;;;;5098481;28;20028;-65
2023/07/09 00:39:46;;;;;;;12.25;5.10;;;21.80;99.90;;;;;;5103282;28;20015;-65
2023/07/09 00:42:17;;;;;;;;;;;21.70;99.90;;;;;;5118388;28;20042;-67
2023/07/09 00:44:47;;;;;;;9.82;5.47;;;21.70;99.90;;;;;;5115322;28;19907;-65
2023/07/09 00:47:24;;;;;;;9.40;4.97;;;21.70;99.90;;;;;;5116111;28;20318;-65
2023/07/09 00:49:57;;;;;;;9.30;4.93;;;21.70;99.90;;;;;;5117133;28;20012;-90
2023/07/09 00:52:35;;;;;;;7.22;4.47;;;21.80;99.90;;;;;;5098668;28;20028;-65
2023/07/09 00:55:07;;;;;;;6.82;4.50;;;21.80;99.90;;;;;;5113299;28;20349;-92
2023/07/09 00:57:38;;;;;;;11.45;4.90;;;21.70;99.90;;;;;;5116343;28;20543;-65
2023/07/09 01:00:09;;;;;;;6.78;4.32;;;21.70;99.90;;;;;;5116437;28;20023;-65
2023/07/09 01:02:43;;;;;;;7.95;4.38;;;21.70;99.90;;;;;;5115726;28;20023;-65
2023/07/09 01:05:11;;;;;;;7.05;4.07;;;21.80;99.90;;;;;;5115866;28;20035;-65
2023/07/09 01:07:37;;;;;;;8.52;4.25;;;21.80;99.90;;;;;;5114327;28;20055;-65
2023/07/09 01:10:03;;;;;;;6.20;4.80;;;21.80;99.90;;;;;;5115721;28;20120;-65
2023/07/09 01:12:30;;;;;;;9.88;4.63;;;21.90;99.90;;;;;;5115323;28;20390;-65
2023/07/09 01:15:01;;;;;;;8.63;4.93;;;21.90;99.90;;;;;;5112145;28;20101;-66
2023/07/09 01:17:28;;;;;;;8.55;4.57;;;21.90;99.90;;;;;;5096218;28;20367;-65
2023/07/09 01:19:55;;;;;;;7.35;4.38;;;21.90;99.90;;;;;;5094996;28;20110;-65
2023/07/09 01:22:23;;;;;;;10.98;4.43;;;21.90;99.90;;;;;;5111659;28;20106;-65
2023/07/09 01:25:06;;;;;;;8.45;4.38;;;21.90;99.90;;;;;;5108947;28;20395;-92
2023/07/09 01:27:41;;;;;;;13.27;4.78;;;21.90;99.90;;;;;;5083780;28;20036;-65
2023/07/09 01:30:14;;;;;;;10.02;4.60;;;21.90;99.90;;;;;;5094952;28;20064;-90
2023/07/09 01:32:45;;;;;;;6.82;3.90;;;21.90;99.90;;;;;;5095544;28;20012;-65
2023/07/09 01:35:15;;;;;;;9.40;4.72;;;21.80;99.90;;;;;;5095126;28;20024;-66
2023/07/09 01:37:42;;;;;;;10.70;4.95;;;21.80;99.90;;;;;;5083311;28;20295;-90
2023/07/09 01:40:09;;;;;;;8.73;5.70;;;21.70;99.90;;;;;;5097698;28;20035;-65
2023/07/09 01:42:37;;;;;;;9.88;5.10;;;21.60;99.90;;;;;;5094643;28;20437;-65
2023/07/09 01:45:04;;;;;;;8.65;5.55;;;21.60;99.90;;;;;;5103134;28;20145;-65
2023/07/09 01:47:30;;;;;;;10.15;5.25;;;21.50;99.90;;;;;;5096690;28;20020;-64
2023/07/09 01:49:57;;;;;;;8.05;5.13;;;21.40;99.90;;;;;;5095570;28;20035;-65
2023/07/09 01:52:29;;;;;;;11.25;5.07;;;21.30;99.90;;;;;;5093606;28;20054;-65
2023/07/09 01:54:55;;;;;;;9.25;4.78;;;21.30;99.90;;;;;;5111362;28;20056;-91
2023/07/09 01:57:34;;;;;;;7.45;5.03;;;21.30;99.90;;;;;;5100693;28;20430;-64
2023/07/09 02:00:08;;;;;;;7.97;4.95;;;21.30;99.90;;;;;;5095290;28;20055;-92
2023/07/09 02:02:35;;;;;;;5.28;4.03;;;21.20;99.90;;;;;;5095747;28;20028;-65
2023/07/09 02:05:02;;;;;;;6.25;4.05;;;21.30;99.90;;;;;;5094308;28;20135;-65
2023/07/09 02:07:28;;;;;;;7.93;4.57;;;21.30;99.90;;;;;;5104647;28;20027;-91
2023/07/09 02:09:54;;;;;;;15.35;5.00;;;21.40;99.90;;;;;;5094658;28;20322;-65
2023/07/09 02:12:19;;;;;;;8.82;5.00;;;21.40;99.90;;;;;;5095093;28;20024;-64
2023/07/09 02:14:45;;;;;;;8.10;4.23;;;21.40;99.90;;;;;;5097618;28;20036;-65
2023/07/09 02:17:13;;;;;;;7.63;4.70;;;21.40;99.90;;;;;;5115429;28;20027;-75
2023/07/09 02:19:40;;;;;;;11.38;4.82;;;21.40;99.90;;;;;;5110209;28;20110;-65
2023/07/09 02:22:06;;;;;;;8.05;4.43;;;21.40;99.90;;;;;;5115574;28;20035;-66
2023/07/09 02:24:33;;;;;;;8.23;4.10;;;21.40;99.90;;;;;;5108793;28;20031;-65
2023/07/09 02:27:00;;;;;;;6.88;3.95;;;21.30;99.90;;;;;;5115303;28;20034;-66
2023/07/09 02:29:28;;;;;;;8.00;4.60;;;21.30;99.90;;;;;;5115327;28;20034;-65
2023/07/09 02:31:56;;;;;;;7.35;4.15;;;21.20;99.90;;;;;;5108953;28;20473;-65
2023/07/09 02:34:25;;;;;;;9.80;5.07;;;21.20;99.90;;;;;;5104574;28;20027;-65
2023/07/09 02:36:52;;;;;;;8.70;5.10;;;21.20;99.90;;;;;;5105317;28;20030;-95
2023/07/09 02:39:18;;;;;;;12.07;5.53;;;21.10;99.90;;;;;;5113640;28;20287;-65
2023/07/09 02:41:44;;;;;;;12.50;5.67;;;21.10;99.90;;;;;;5114575;28;20028;-65
2023/07/09 02:44:09;;;;;;;9.50;5.43;;;21.00;99.90;;;;;;5108309;28;20040;-65
2023/07/09 02:46:35;;;;;;;10.97;5.90;;;21.00;99.90;;;;;;5094998;28;20035;-65
2023/07/09 02:49:04;;;;;;;9.90;5.67;;;21.00;99.90;;;;;;5111577;28;20075;-65
2023/07/09 02:51:30;;;;;;;12.18;5.78;;;21.10;99.90;;;;;;5094461;28;20363;-65
2023/07/09 02:53:58;;;;;;;12.50;5.50;;;21.00;99.90;;;;;;5099212;28;20060;-64
2023/07/09 02:56:24;;;;;;;8.23;6.15;;;21.00;99.90;;;;;;5100111;28;20028;-65
2023/07/09 02:58:50;;;;;;;8.05;5.00;;;21.00;99.90;;;;;;5115169;28;20028;-92
2023/07/09 03:01:17;;;;;;;10.45;5.15;;;20.90;99.90;;;;;;5109770;28;20035;-64
2023/07/09 03:03:43;;;;;;;7.88;5.03;;;20.90;99.90;;;;;;5106680;28;20084;-64
2023/07/09 03:06:10;;;;;;;10.25;5.28;;;20.90;99.90;;;;;;5081736;28;20039;-90
2023/07/09 03:08:36;;;;;;;9.18;5.05;;;20.90;99.90;;;;;;5103024;28;20046;-64
2023/07/09 03:11:12;;;;;;;39.08;6.38;;;20.90;99.90;;;;;;5114027;28;20038;-64
2023/07/09 03:13:38;;;;;;;;;;;20.90;99.90;;;;;;5107023;28;20406;-94
2023/07/09 03:16:05;;;;;;;10.95;5.15;;;21.00;99.90;;;;;;5109537;28;19955;-65
2023/07/09 03:18:31;;;;;;;9.57;5.30;;;21.00;99.90;;;;;;5114246;28;20035;-65
2023/07/09 03:20:58;;;;;;;10.20;5.72;;;20.90;99.90;;;;;;5107306;28;20410;-65
2023/07/09 03:23:24;;;;;;;7.53;4.22;;;20.90;99.90;;;;;;5113694;28;20027;-65
2023/07/09 03:25:50;;;;;;;11.77;5.47;;;20.90;99.90;;;;;;5112907;28;20026;-92
2023/07/09 03:28:16;;;;;;;9.97;5.90;;;20.80;99.90;;;;;;5112877;28;20346;-64
2023/07/09 03:30:46;;;;;;;12.30;5.30;;;20.80;99.90;;;;;;5114889;28;20268;-64
2023/07/09 03:33:14;;;;;;;10.07;5.80;;;20.80;99.90;;;;;;5114000;28;20252;-65
2023/07/09 03:35:40;;;;;;;13.77;6.53;;;20.80;99.90;;;;;;5114328;28;20024;-64
2023/07/09 03:38:07;;;;;;;12.45;6.25;;;20.70;99.90;;;;;;5117167;28;20381;-64
2023/07/09 03:40:33;;;;;;;12.63;6.00;;;20.70;99.90;;;;;;5116862;28;20031;-65
2023/07/09 03:42:59;;;;;;;12.18;5.40;;;20.70;99.90;;;;;;5117804;28;20086;-65
2023/07/09 03:45:25;;;;;;;9.77;6.17;;;20.70;99.90;;;;;;5117494;28;20020;-64
2023/07/09 03:47:51;;;;;;;13.30;6.07;;;20.60;99.90;;;;;;5098911;28;20276;-85
2023/07/09 03:50:17;;;;;;;13.68;5.95;;;20.60;99.90;;;;;;5117642;28;20061;-64
2023/07/09 03:52:43;;;;;;;9.73;5.78;;;20.60;99.90;;;;;;5115823;28;20120;-64
2023/07/09 03:55:09;;;;;;;13.63;4.93;;;20.60;99.90;;;;;;5117488;28;20095;-64
2023/07/09 03:57:35;;;;;;;11.98;5.45;;;20.60;99.90;;;;;;5117129;28;20325;-91
2023/07/09 04:00:03;;;;;;;11.63;5.50;;;20.70;99.90;;;;;;5117119;28;20031;-64
2023/07/09 04:02:29;;;;;;;8.95;5.55;;;20.80;99.90;;;;;;5116931;28;20031;-65
2023/07/09 04:04:55;;;;;;;12.07;6.07;;;20.80;99.90;;;;;;5117773;28;20023;-91
2023/07/09 04:07:21;;;;;;;8.80;5.73;;;20.70;99.90;;;;;;5116691;27;20115;-65
2023/07/09 04:09:46;;;;;;;13.17;6.17;;;20.80;99.90;;;;;;5115277;28;20314;-64
2023/07/09 04:12:12;;;;;;;11.80;5.90;;;20.80;99.90;;;;;;5117310;28;20024;-64
2023/07/09 04:14:38;;;;;;;8.80;5.67;;;20.80;99.90;;;;;;5116701;28;20047;-64
2023/07/09 04:17:04;;;;;;;8.43;5.37;;;20.80;99.90;;;;;;5117296;28;20020;-65
2023/07/09 04:19:30;;;;;;;15.55;6.43;;;20.80;99.90;;;;;;5115693;28;20368;-64
2023/07/09 04:21:55;;;;;;;12.27;6.70;;;20.80;99.90;;;;;;5117288;28;20031;-65
2023/07/09 04:24:21;;;;;;;10.23;6.13;;;20.80;99.90;;;;;;5116468;28;20028;-65
2023/07/09 04:26:47;;;;;;;10.45;6.43;;;20.80;99.90;;;;;;5115336;28;20030;-64
2023/07/09 04:29:14;;;;;;;9.20;5.20;;;20.80;99.90;;;;;;5115974;28;20036;-64
2023/07/09 04:31:40;;;;;;;8.63;5.78;;;20.70;99.90;;;;;;5116425;28;20103;-89
2023/07/09 04:34:07;;;;;;;15.48;6.15;;;20.70;99.90;;;;;;5117115;28;20030;-64
2023/07/09 04:36:33;;;;;;;10.68;6.38;;;20.70;99.90;;;;;;5116449;28;20407;-65
2023/07/09 04:38:59;;;;;;;11.45;6.28;;;20.60;99.90;;;;;;5116316;28;20028;-65
2023/07/09 04:41:25;;;;;;;14.00;6.93;;;20.60;99.90;;;;;;5116414;28;20085;-92
2023/07/09 04:43:50;;;;;;;14.38;7.32;;;20.70;99.90;;;;;;5116177;28;20296;-92
2023/07/09 04:46:16;;;;;;;14.23;7.23;;;20.70;99.90;;;;;;5117139;28;20102;-65
2023/07/09 04:48:42;;;;;;;12.70;6.90;;;20.80;99.90;;;;;;5115255;28;20039;-65
2023/07/09 04:51:08;;;;;;;18.73;8.20;;;20.80;99.90;;;;;;5115860;28;20330;-65
2023/07/09 04:53:34;;;;;;;9.23;6.32;;;20.90;99.90;;;;;;5116789;28;20020;-65
2023/07/09 04:56:00;;;;;;;12.43;6.03;;;20.90;99.90;;;;;;5102445;28;20024;-65
2023/07/09 04:58:26;;;;;;;10.05;6.75;;;21.00;99.90;;;;;;5114855;28;20039;-92
2023/07/09 05:00:52;;;;;;;11.80;6.60;;;21.10;99.90;;;;;;5114035;28;20376;-67
2023/07/09 05:03:19;;;;;;;10.40;6.43;;;21.10;99.90;;;;;;5116482;28;20430;-65
2023/07/09 05:05:46;;;;;;;10.05;5.93;;;21.10;99.90;;;;;;5116857;28;20059;-65
2023/07/09 05:08:13;;;;;;;8.65;5.28;;;21.10;99.90;;;;;;5114208;28;20431;-65
2023/07/09 05:10:46;;;;;;;8.98;5.55;;;21.00;99.90;;;;;;5114671;28;20022;-65
2023/07/09 05:13:12;;;;;;;10.15;5.28;;;21.00;99.90;;;;;;5116318;28;20046;-65
2023/07/09 05:15:44;;;;;;;9.73;6.28;;;21.00;99.90;;;;;;5112101;28;20308;-65
2023/07/09 05:18:10;;;;;;;8.38;6.18;;;21.00;99.90;;;;;;5112212;28;20036;-65
2023/07/09 05:20:36;;;;;;;11.25;6.55;;;21.00;99.90;;;;;;5097382;28;20177;-65
2023/07/09 05:23:02;;;;;;;10.50;6.07;;;21.00;99.90;;;;;;5116266;28;20102;-66
2023/07/09 05:25:28;;;;;;;11.10;6.82;;;21.00;99.90;;;;;;5115252;28;20091;-65
2023/07/09 05:27:53;;;;;;;9.43;6.10;;;21.00;99.90;;;;;;5116116;28;20027;-66
2023/07/09 05:30:20;;;;;;;11.83;6.33;;;21.00;99.90;;;;;;5113170;28;20046;-65
2023/07/09 05:32:47;;;;;;;12.65;7.15;;;21.10;99.90;;;;;;5116211;28;20141;-64
2023/07/09 05:35:13;;;;;;;13.02;7.53;;;21.10;99.90;;;;;;5115745;28;20031;-64
2023/07/09 05:37:40;;;;;;;10.75;7.30;;;21.10;99.90;;;;;;5116093;28;20330;-64
2023/07/09 05:40:07;;;;;;;15.05;7.53;;;21.10;99.90;;;;;;5112419;28;20047;-90
2023/07/09 05:42:34;;;;;;;14.02;6.90;;;21.20;99.90;;;;;;5115390;28;20086;-65
2023/07/09 05:45:00;;;;;;;10.82;6.90;;;21.20;99.90;;;;;;5115506;28;20027;-65
2023/07/09 05:47:26;;;;;;;17.48;6.15;;;21.30;99.90;;;;;;5115447;28;20047;-65
2023/07/09 05:49:52;;;;;;;11.32;6.65;;;21.40;99.90;;;;;;5116132;28;20027;-65
2023/07/09 05:52:21;;;;;;;16.05;7.90;;;21.50;99.90;;;;;;5114338;28;20027;-65
2023/07/09 05:54:49;;;;;;;14.80;8.63;;;21.50;99.90;;;;;;5115621;28;20352;-65
2023/07/09 05:57:15;;;;;;;11.43;7.55;;;21.60;99.90;;;;;;5115035;28;20027;-65
2023/07/09 05:59:40;;;;;;;14.57;8.43;;;21.70;99.90;;;;;;5109924;28;20414;-65
2023/07/09 06:02:14;;;;;;;13.43;8.57;;;21.80;99.90;;;;;;5115068;28;20046;-65
2023/07/09 06:04:40;;;;;;;14.38;8.80;;;21.90;99.90;;;;;;5115027;28;20019;-90
2023/07/09 06:07:06;;;;;;;15.93;8.83;;;21.90;99.90;;;;;;5115201;28;20300;-65
2023/07/09 06:09:32;;;;;;;11.90;8.47;;;22.00;99.90;;;;;;5114123;28;20349;-65
2023/07/09 06:11:58;;;;;;;15.65;8.60;;;22.10;99.90;;;;;;5114965;28;20436;-65
2023/07/09 06:14:25;;;;;;;12.60;8.63;;;22.20;99.90;;;;;;5114305;28;20040;-65
2023/07/09 06:16:50;;;;;;;14.40;9.02;;;22.30;99.90;;;;;;5113266;28;20042;-65
2023/07/09 06:19:16;;;;;;;14.73;10.00;;;22.30;99.90;;;;;;5114622;28;20031;-65
2023/07/09 06:21:42;;;;;;;16.53;9.03;;;22.40;99.90;;;;;;5113851;28;20098;-70
2023/07/09 06:24:08;;;;;;;16.25;9.70;;;22.50;99.90;;;;;;5115403;28;20027;-65
2023/07/09 06:26:34;;;;;;;17.75;9.45;;;22.70;99.90;;;;;;5114244;28;20040;-65
2023/07/09 06:29:00;;;;;;;18.50;9.57;;;22.90;99.90;;;;;;5113406;28;20016;-65
2023/07/09 06:31:26;;;;;;;12.07;7.80;;;23.00;99.90;;;;;;5114331;28;20096;-86
2023/07/09 06:33:52;;;;;;;13.53;8.43;;;23.00;99.90;;;;;;5115781;28;20267;-65
2023/07/09 06:36:18;;;;;;;14.53;9.13;;;23.10;99.90;;;;;;5112989;28;20038;-66
2023/07/09 06:38:45;;;;;;;15.18;9.60;;;23.20;99.90;;;;;;5113941;28;20276;-95
2023/07/09 06:41:12;;;;;;;17.45;9.70;;;23.20;99.90;;;;;;5115596;28;20319;-85
2023/07/09 06:43:41;;;;;;;17.80;9.90;;;23.30;99.90;;;;;;5114453;28;20028;-65
2023/07/09 06:46:10;;;;;;;18.10;10.82;;;23.40;99.90;;;;;;5114762;28;20028;-90
2023/07/09 06:48:36;;;;;;;17.83;9.60;;;23.50;99.90;;;;;;5111390;28;20036;-65
2023/07/09 06:51:02;;;;;;;18.57;10.47;;;23.60;99.90;;;;;;5114291;28;20024;-65
2023/07/09 06:53:28;;;;;;;23.27;9.18;;;23.60;99.90;;;;;;5107501;28;20076;-65
2023/07/09 06:55:55;;;;;;;17.73;8.93;;;23.70;99.90;;;;;;5114388;28;20031;-66
2023/07/09 06:58:22;;;;;;;;;;;23.70;99.90;;;;;;5114184;28;20326;-65
2023/07/09 07:00:49;;;;;;;12.98;6.82;;;23.90;99.90;;;;;;5106897;28;19908;-66
2023/07/09 07:03:15;;;;;;;12.25;7.38;;;24.10;99.90;;;;;;5114723;28;20050;-94
2023/07/09 07:05:45;;;;;;;13.02;6.80;;;24.10;99.90;;;;;;5115066;28;20141;-66
2023/07/09 07:08:13;;;;;;;11.45;7.13;;;24.20;99.90;;;;;;5113783;28;20422;-65
2023/07/09 07:10:38;;;;;;;13.57;7.55;;;24.30;99.90;;;;;;5097197;28;20066;-65
2023/07/09 07:13:04;;;;;;;11.50;7.20;;;24.40;99.90;;;;;;5119104;28;20043;-66
2023/07/09 07:15:30;;;;;;;14.43;7.07;;;24.50;99.90;;;;;;5119100;28;20641;-66
2023/07/09 07:17:55;;;;;;;9.77;6.70;;;24.70;99.90;;;;;;5118707;28;20027;-84
2023/07/09 07:20:21;;;;;;;14.10;7.75;;;24.80;99.90;;;;;;5118722;28;20039;-89
2023/07/09 07:22:47;;;;;;;13.53;8.80;;;25.00;99.90;;;;;;5115776;28;20118;-66
2023/07/09 07:25:13;;;;;;;13.67;8.13;;;25.10;99.90;;;;;;5103885;28;20410;-68
2023/07/09 07:27:39;;;;;;;17.75;8.82;;;25.30;99.90;;;;;;5118943;28;20274;-66
2023/07/09 07:30:08;;;;;;;17.08;9.10;;;25.30;99.90;;;;;;5103717;28;20095;-66
2023/07/09 07:32:36;;;;;;;15.90;9.10;;;25.30;99.90;;;;;;5118809;28;20016;-66
2023/07/09 07:35:02;;;;;;;13.23;7.60;;;25.40;99.90;;;;;;5112374;28;20027;-67
2023/07/09 07:37:28;;;;;;;14.77;9.23;;;25.40;99.90;;;;;;5114906;28;20032;-87
2023/07/09 07:39:54;;;;;;;18.17;9.85;;;25.40;99.90;;;;;;5118000;28;20035;-65
2023/07/09 07:42:19;;;;;;;17.05;10.95;;;25.40;99.90;;;;;;5118365;28;20026;-66
2023/07/09 07:44:45;;;;;;;21.77;12.17;;;25.40;99.90;;;;;;5116209;28;20039;-66
2023/07/09 07:47:11;;;;;;;22.95;14.00;;;25.30;99.90;;;;;;5115625;28;20275;-65
2023/07/09 07:49:38;;;;;;;25.02;14.93;;;25.40;99.90;;;;;;5093012;28;20119;-66
2023/07/09 07:52:04;;;;;;;22.75;14.63;;;25.30;99.90;;;;;;5110760;28;20023;-66
2023/07/09 07:54:31;;;;;;;24.95;14.85;;;25.20;99.90;;;;;;5104390;28;20028;-82
2023/07/09 07:56:57;;;;;;;15.25;9.75;;;25.10;99.90;;;;;;5111582;28;20027;-66
2023/07/09 07:59:23;;;;;;;;;;;25.00;99.90;;;;;;5093336;28;20096;-64
2023/07/09 08:01:49;;;;;;;20.10;11.30;;;24.90;99.90;;;;;;5114943;28;19911;-65
2023/07/09 08:04:15;;;;;;;19.45;12.50;;;24.90;99.90;;;;;;5097634;28;20032;-66
2023/07/09 08:06:41;;;;;;;22.70;12.77;;;25.00;99.90;;;;;;5097334;28;20028;-66
2023/07/09 08:09:07;;;;;;;18.80;11.10;;;24.80;99.90;;;;;;5110522;28;20317;-78
2023/07/09 08:11:32;;;;;;;10.13;6.50;;;24.80;99.90;;;;;;5109628;28;20028;-65
2023/07/09 08:13:58;;;;;;;11.37;7.03;;;24.70;99.90;;;;;;5096460;28;20036;-65
2023/07/09 08:16:24;;;;;;;12.38;7.07;;;24.70;99.90;;;;;;5114340;28;20383;-66
2023/07/09 08:18:51;;;;;;;9.65;6.93;;;24.70;99.90;;;;;;5099156;28;20036;-64
2023/07/09 08:21:17;;;;;;;13.02;7.50;;;24.60;99.90;;;;;;5115404;28;20030;-65
2023/07/09 08:23:44;;;;;;;11.02;6.68;;;24.60;99.90;;;;;;5115865;28;20027;-65
2023/07/09 08:26:10;;;;;;;;;;;24.50;99.90;;;;;;5116286;27;20038;-65
2023/07/09 08:28:35;;;;;;;14.23;8.73;;;24.50;99.90;;;;;;5114279;28;19916;-65
2023/07/09 08:31:01;;;;;;;13.70;8.17;;;24.50;99.90;;;;;;5116883;28;20039;-64
2023/07/09 08:33:27;;;;;;;16.50;10.93;;;24.40;99.90;;;;;;5112398;28;20019;-64
2023/07/09 08:35:54;;;;;;;20.02;11.82;;;24.40;99.90;;;;;;5114815;28;20437;-65
2023/07/09 08:38:20;;;;;;;;;;;24.50;99.90;;;;;;5115777;28;20031;-80
2023/07/09 08:41:12;;;;;;;;;;;24.60;99.90;;;;;;5116139;28;19911;-65
2023/07/09 08:44:09;;;;;;;20.23;13.15;;;24.60;99.90;;;;;;5107717;28;20298;-66
2023/07/09 08:46:53;;;;;;;19.23;11.73;;;24.70;99.90;;;;;;5113045;28;20043;-65
2023/07/09 08:49:23;;;;;;;20.45;11.07;;;24.70;99.90;;;;;;5114999;27;20024;-64
2023/07/09 08:51:50;;;;;;;17.73;11.00;;;24.70;99.90;;;;;;5114180;28;20110;-66
2023/07/09 08:54:36;;;;;;;13.63;9.13;;;24.70;99.90;;;;;;5112546;28;21421;-66
2023/07/09 08:57:27;;;;;;;12.65;6.53;;;24.80;99.90;;;;;;5116341;28;20078;-64
2023/07/09 09:00:11;;;;;;;11.98;7.00;;;24.80;99.90;;;;;;5091252;28;20051;-65
2023/07/09 09:02:44;;;;;;;11.73;6.82;;;24.80;99.90;;;;;;5110388;28;20321;-64
2023/07/09 09:05:13;;;;;;;14.02;8.30;;;24.90;99.90;;;;;;5115983;28;20114;-64
2023/07/09 09:07:44;;;;;;;11.50;6.93;;;24.90;99.90;;;;;;5115659;28;20027;-64
2023/07/09 09:10:36;;;;;;;11.25;6.40;;;24.90;99.90;;;;;;5111074;28;20027;-66
2023/07/09 09:13:16;;;;;;;9.38;5.60;;;25.00;99.90;;;;;;5104339;28;20036;-74
2023/07/09 09:15:45;;;;;;;8.95;5.00;;;25.10;99.90;;;;;;5116103;28;20505;-68
2023/07/09 09:18:22;;;;;;;9.07;4.80;;;25.10;99.90;;;;;;5115510;28;20028;-65
2023/07/09 09:21:05;;;;;;;11.77;5.32;;;25.20;99.90;;;;;;5116378;28;20031;-77
2023/07/09 09:23:48;;;;;;;10.43;6.25;;;25.20;99.90;;;;;;5115336;28;20413;-65
2023/07/09 09:26:22;;;;;;;8.02;5.40;;;25.30;99.90;;;;;;5115953;28;20023;-64
2023/07/09 09:28:48;;;;;;;11.57;5.55;;;25.40;99.90;;;;;;5102820;28;20031;-64
2023/07/09 09:31:14;;;;;;;8.70;5.83;;;25.50;99.90;;;;;;5116106;28;20027;-64
2023/07/09 09:33:44;;;;;;;9.88;6.10;;;25.50;99.90;;;;;;5114760;28;20048;-64
2023/07/09 09:36:24;;;;;;;10.82;5.47;;;25.60;99.90;;;;;;5115585;28;20047;-65
2023/07/09 09:38:51;;;;;;;12.02;6.47;;;25.60;99.90;;;;;;5115177;28;20039;-85
2023/07/09 09:41:21;;;;;;;10.35;5.85;;;25.70;99.90;;;;;;5115720;28;20316;-84
2023/07/09 09:43:51;;;;;;;10.73;5.47;;;25.80;99.90;;;;;;5115163;28;20051;-64
2023/07/09 09:46:22;;;;;;;12.98;7.25;;;25.90;99.90;;;;;;5115785;28;20358;-65
2023/07/09 09:48:55;;;;;;;11.45;7.05;;;25.90;99.90;;;;;;5115523;28;20023;-82
2023/07/09 09:51:23;;;;;;;11.80;7.18;;;26.00;99.90;;;;;;5102444;28;20031;-85
2023/07/09 09:53:52;;;;;;;11.85;6.63;;;26.10;99.90;;;;;;5115540;28;20031;-81
2023/07/09 09:56:37;;;;;;;10.90;7.07;;;26.20;99.90;;;;;;5115165;28;20310;-65
2023/07/09 09:59:04;;;;;;;16.73;7.72;;;26.30;99.90;;;;;;5110105;28;20414;-65
2023/07/09 10:01:35;;;;;;;13.35;7.20;;;26.40;99.90;;;;;;5115246;28;20027;-75
2023/07/09 10:04:04;;;;;;;9.60;6.20;;;26.40;99.90;;;;;;5115374;28;20110;-65
2023/07/09 10:06:46;;;;;;;15.20;8.25;;;26.50;99.90;;;;;;5114592;28;20026;-65
2023/07/09 10:09:39;;;;;;;13.48;7.68;;;26.60;99.90;;;;;;5114910;28;20039;-66
2023/07/09 10:12:22;;;;;;;12.65;6.95;;;26.50;99.90;;;;;;5104446;28;20030;-66
2023/07/09 10:15:00;;;;;;;10.50;7.00;;;26.40;99.90;;;;;;5114419;28;20052;-65
2023/07/09 10:18:09;;;;;;;15.20;7.97;;;26.30;99.90;;;;;;5115305;28;20428;-66
2023/07/09 10:20:42;;;;;;;15.20;10.02;;;26.40;99.90;;;;;;5113874;28;20042;-66
2023/07/09 10:23:27;;;;;;;14.98;9.48;;;26.20;99.90;;;;;;5113922;28;20027;-66
2023/07/09 10:26:12;;;;;;;12.60;7.57;;;26.10;99.90;;;;;;5114864;28;20034;-66
2023/07/09 10:28:41;;;;;;;14.33;8.37;;;26.10;99.90;;;;;;5112531;28;20532;-66
2023/07/09 10:31:16;;;;;;;11.95;6.13;;;26.00;99.90;;;;;;5106701;28;20027;-82
2023/07/09 10:34:17;;;;;;;9.27;6.15;;;25.90;99.90;;;;;;5114368;28;20056;-66
2023/07/09 10:37:15;;;;;;;8.93;5.15;;;25.70;99.90;;;;;;5114525;28;20069;-64
2023/07/09 10:39:48;;;;;;;7.75;4.80;;;25.60;99.90;;;;;;5114884;28;20051;-82
2023/07/09 10:42:29;;;;;;;6.45;4.03;;;25.70;99.90;;;;;;5095272;28;20038;-64
2023/07/09 10:45:22;;;;;;;9.90;3.97;;;25.80;99.90;;;;;;5115268;28;20020;-65
2023/07/09 10:47:53;;;;;;;7.82;4.40;;;25.80;99.90;;;;;;5108084;28;20102;-66
2023/07/09 10:50:30;;;;;;;8.52;4.10;;;25.60;99.90;;;;;;5119259;28;20102;-81
2023/07/09 10:53:00;;;;;;;6.82;3.60;;;25.70;99.90;;;;;;5117458;28;20019;-65
2023/07/09 10:55:33;;;;;;;9.48;4.35;;;25.60;99.90;;;;;;5119122;28;20107;-65
2023/07/09 10:58:04;;;;;;;9.85;3.50;;;25.50;99.90;;;;;;5100303;28;20113;-65
2023/07/09 11:00:35;;;;;;;6.68;4.35;;;25.50;99.90;;;;;;5118665;28;20425;-64
2023/07/09 11:03:27;;;;;;;9.23;3.78;;;25.60;99.90;;;;;;5116863;28;20113;-83
2023/07/09 11:05:54;;;;;;;5.65;3.05;;;25.70;99.90;;;;;;5118328;28;20073;-64
2023/07/09 11:08:37;;;;;;;5.95;2.90;;;25.70;99.90;;;;;;5118868;28;20410;-64
2023/07/09 11:11:10;;;;;;;7.97;3.03;;;25.60;99.90;;;;;;5115110;28;20028;-67
2023/07/09 11:13:43;;;;;;;5.88;2.60;;;25.30;99.90;;;;;;5117872;28;20031;-64
2023/07/09 11:16:15;;;;;;;4.35;2.63;;;25.20;99.90;;;;;;5117263;28;20051;-64
2023/07/09 11:18:40;;;;;;;9.15;2.55;;;25.00;99.90;;;;;;5117771;28;20422;-64
2023/07/09 11:21:13;;;;;;;2.88;2.30;;;25.10;99.90;;;;;;5117264;28;20023;-66
2023/07/09 11:23:46;;;;;;;2.67;2.40;;;25.00;99.90;;;;;;5104362;28;20034;-78
2023/07/09 11:26:36;;;;;;;4.75;2.75;;;25.20;99.90;;;;;;5117704;28;20039;-64
2023/07/09 11:29:02;;;;;;;6.05;2.75;;;25.50;99.90;;;;;;5118194;28;20428;-70
2023/07/09 11:31:41;;;;;;;3.13;2.27;;;25.70;99.90;;;;;;5117555;28;20026;-64
2023/07/09 11:34:07;;;;;;;3.90;1.92;;;26.00;99.90;;;;;;5118304;28;20016;-81
2023/07/09 11:36:33;;;;;;;5.40;2.53;;;26.10;99.90;;;;;;5117188;28;20043;-64
2023/07/09 11:39:01;;;;;;;4.32;2.60;;;26.30;99.90;;;;;;5118196;28;20015;-65
2023/07/09 11:41:45;;;;;;;3.50;2.22;;;26.40;99.90;;;;;;5118324;28;20059;-65
2023/07/09 11:44:28;;;;;;;4.13;2.47;;;26.40;99.90;;;;;;5105877;28;20339;-84
2023/07/09 11:47:18;;;;;;;4.45;2.28;;;26.50;99.90;;;;;;5083718;28;20024;-66
2023/07/09 11:49:53;;;;;;;4.70;2.40;;;26.50;99.90;;;;;;5115764;28;20077;-65
2023/07/09 11:52:26;;;;;;;5.05;2.40;;;26.30;99.90;;;;;;5117194;28;20020;-65
2023/07/09 11:54:54;;;;;;;6.05;2.88;;;26.00;99.90;;;;;;5118190;28;20317;-75
2023/07/09 11:57:20;;;;;;;5.15;2.83;;;26.10;99.90;;;;;;5116759;28;20047;-66
2023/07/09 11:59:45;;;;;;;5.40;2.53;;;25.90;99.90;;;;;;5116467;28;20063;-64
2023/07/09 12:02:20;;;;;;;5.03;2.93;;;25.70;99.90;;;;;;5118005;28;20031;-64
2023/07/09 12:04:51;;;;;;;3.78;1.90;;;25.60;99.90;;;;;;5116792;28;20157;-64
2023/07/09 12:07:17;;;;;;;6.13;2.80;;;25.70;99.90;;;;;;5117768;28;20072;-63
2023/07/09 12:09:50;;;;;;;2.92;2.17;;;25.60;99.90;;;;;;5117200;28;20158;-66
2023/07/09 12:12:20;;;;;;;3.15;2.13;;;25.50;99.90;;;;;;5117734;28;20100;-64
2023/07/09 12:14:46;;;;;;;5.65;2.22;;;25.60;99.90;;;;;;5116183;28;20044;-64
2023/07/09 12:17:11;;;;;;;3.25;2.10;;;25.70;99.90;;;;;;5117246;28;20046;-80
2023/07/09 12:19:39;;;;;;;6.27;2.37;;;25.60;99.90;;;;;;5116632;28;20042;-65
2023/07/09 12:22:09;;;;;;;3.85;2.30;;;25.80;99.90;;;;;;5117352;28;20024;-64
2023/07/09 12:24:43;;;;;;;3.75;2.28;;;26.10;99.90;;;;;;5116723;28;20026;-65
2023/07/09 12:27:27;;;;;;;3.78;2.15;;;26.10;99.90;;;;;;5117008;28;20060;-64
2023/07/09 12:29:56;;;;;;;4.07;2.53;;;26.20;99.90;;;;;;5098436;28;20110;-64
2023/07/09 12:32:26;;;;;;;4.80;2.63;;;26.40;99.90;;;;;;5117283;28;20302;-65
2023/07/09 12:34:56;;;;;;;3.10;2.03;;;26.50;99.90;;;;;;5116720;28;20326;-81
2023/07/09 12:37:23;;;;;;;5.05;2.05;;;26.30;99.90;;;;;;5117292;28;20390;-65
2023/07/09 12:39:54;;;;;;;2.78;1.80;;;26.20;99.90;;;;;;5117494;28;20047;-88
2023/07/09 12:42:25;;;;;;;3.55;2.20;;;26.00;99.90;;;;;;5116451;28;20070;-65
2023/07/09 12:44:51;;;;;;;6.07;2.75;;;25.90;99.90;;;;;;5117206;28;20426;-83
2023/07/09 12:47:19;;;;;;;4.53;2.92;;;25.90;99.90;;;;;;5116349;28;20019;-65
2023/07/09 12:49:47;;;;;;;6.18;2.40;;;26.00;99.90;;;;;;5116806;28;20031;-64
2023/07/09 12:52:20;;;;;;;3.13;2.42;;;26.10;99.90;;;;;;5098642;28;20027;-65
2023/07/09 12:55:25;;;;;;;3.67;2.40;;;26.10;99.90;;;;;;5116587;28;20030;-65